Nearby METAR Reports

 

KGIF - Winter Haven, Florida, USA
Distance from station: SW 11mi, 18km
Updated: Tue, 26-Oct-2021 7:53am EDT
Clear
Clear
 Wind from varies
Wind: varies 6 mph , 9 km/h
Temperature: 75°F , 24°C
Dew Point: 73°F , 23°C
Humidity: 94%
Barometer: 29.93 inHg , 1013.5 hPa
Clouds: Clear
Visibility: 10 miles , 16 km
2021/10/26 11:53 KGIF 261153Z AUTO VRB05KT 10SM CLR 24/23 A2993 RMK AO2 SLP132 70002 T02390228 10239 20233 51009
KISM - Kissimmee/Orland, Florida, USA
Distance from station: NE 13mi, 22km
Updated: Tue, 26-Oct-2021 8:03am EDT
Partly cloudy
Partly cloudy
 Wind from W
Wind: W 5 mph , 7 km/h
Temperature: 72°F , 22°C
Dew Point: 72°F , 22°C
Humidity: 100%
Barometer: 29.92 inHg , 1013.2 hPa
Clouds: Partly cloudy
Visibility: 8 miles , 13 km
Cloud details: Partly cloudy 500 ft
2021/10/26 12:03 KISM 261203Z 26004KT 8SM SCT005 22/22 A2992 RMK AO2 PNO $
 
KBOW - Bartow Municipal, Florida, USA
Distance from station: SSW 19mi, 31km
Updated: Tue, 26-Oct-2021 7:50am EDT
Partly cloudy
Partly cloudy
 Wind from calm
Wind: Calm
Temperature: 73°F , 23°C
Dew Point: 73°F , 23°C
Humidity: 100%
Barometer: 29.92 inHg , 1013.2 hPa
Clouds: Partly cloudy
Visibility: 7 miles , 11 km
Cloud details: Partly cloudy 1800 ft
2021/10/26 11:50 KBOW 261150Z 00000KT 7SM SCT018 23/23 A2992
KMCO - Orlando, Florida, USA
Distance from station: NE 24mi, 39km
Updated: Tue, 26-Oct-2021 7:53am EDT
Few Clouds
Few Clouds
 Wind from WSW
Wind: WSW 6 mph , 9 km/h
Temperature: 73°F , 23°C
Dew Point: 72°F , 22°C
Humidity: 94%
Barometer: 29.90 inHg , 1012.5 hPa
Clouds: Few Clouds
Visibility: 10 miles , 16 km
Cloud details: Few Clouds 800 ft
Few Clouds 1500 ft
Few Clouds 12000 ft
2021/10/26 11:53 KMCO 261153Z 24005KT 10SM FEW008 FEW015 FEW120 23/22 A2990 RMK AO2 SLP124 70002 T02330222 10244 20228 51009
 
KLAL - Lakeland Regiona, Florida, USA
Distance from station: WSW 28mi, 46km
Updated: Tue, 26-Oct-2021 7:50am EDT
Mostly cloudy
Mostly cloudy
 Wind from SW
Wind: SW 5 mph , 7 km/h
Temperature: 73°F , 23°C
Dew Point: 73°F , 23°C
Humidity: 100%
Barometer: 29.92 inHg , 1013.2 hPa
Clouds: Mostly cloudy
Visibility: 10 miles , 16 km
Cloud details: Mostly cloudy 1500 ft
2021/10/26 11:50 KLAL 261150Z 22004KT 10SM BKN015 23/23 A2992
KORL - Orlando, Florida, USA
Distance from station: NNE 31mi, 50km
Updated: Tue, 26-Oct-2021 8:00am EDT
Mostly cloudy
Mostly cloudy
 Wind from W
Wind: W 6 mph , 9 km/h
Temperature: 73°F , 23°C
Dew Point: 73°F , 23°C
Humidity: 100%
Barometer: 29.90 inHg , 1012.5 hPa
Clouds: Mostly cloudy
Visibility: 10 miles , 16 km
Cloud details: Mostly cloudy 1000 ft
Mostly cloudy 1500 ft
Mostly cloudy 4100 ft
2021/10/26 12:00 KORL 261200Z 26005KT 10SM BKN010 BKN015 BKN041 23/23 A2990 RMK AO2 CIG 007V012 T02330233
 
KZPH - Zephyrhills, Florida, USA
Distance from station: W 33mi, 53km
Updated: Tue, 26-Oct-2021 7:55am EDT
Fog, Overcast
Fog, Overcast
 Wind from calm
Wind: Calm
Temperature: 72°F , 22°C
Dew Point: 70°F , 21°C
Humidity: 94%
Barometer: 29.93 inHg , 1013.5 hPa
Summary: Fog
Clouds: Overcast
Visibility: 1/4 mile , 0.4 km
Cloud details: Overcast 100 ft
2021/10/26 11:55 KZPH 261155Z AUTO 00000KT 1/4SM FG OVC001 22/21 A2993 RMK A02 T02160213 10235 20208 70071
KPCM - Plant City Muni, Florida, USA
Distance from station: WSW 36mi, 57km
Updated: Tue, 26-Oct-2021 2:55am EDT
NOT Current
Mostly cloudy
Mostly cloudy
 Wind from WSW
Wind: WSW 6 mph , 9 km/h
Temperature: 75°F , 24°C
Dew Point: 75°F , 24°C
Humidity: 100%
Barometer: 29.91 inHg , 1012.9 hPa
Clouds: Mostly cloudy
Visibility: 10 miles , 16 km
Cloud details: Mostly cloudy 1600 ft
Mostly cloudy 2500 ft
Mostly cloudy 3000 ft
2021/10/26 06:55 KPCM 260655Z AUTO 24005KT 10SM BKN016 BKN025 BKN030 24/24 A2991 RMK AO2
 
KVDF - Tampa/Vandenburg, Florida, USA
Distance from station: WSW 45mi, 73km
Updated: Tue, 26-Oct-2021 8:15am EDT
Mist, Mostly cloudy
Mist, Mostly cloudy
 Wind from calm
Wind: Calm
Temperature: 73°F , 23°C
Dew Point: 72°F , 22°C
Humidity: 94%
Barometer: 29.93 inHg , 1013.5 hPa
Summary: Mist
Clouds: Mostly cloudy
Visibility: 1 1/4 miles , 2 km
Cloud details: Partly cloudy 1600 ft
Mostly cloudy 3100 ft
2021/10/26 12:15 KVDF 261215Z AUTO 00000KT 1 1/4SM BR SCT016 BKN031 23/22 A2993 RMK AO2
KLEE - Leesburg, Florida, USA
Distance from station: NNW 46mi, 74km
Updated: Tue, 26-Oct-2021 7:53am EDT
Partly cloudy
Partly cloudy
 Wind from W
Wind: W 3 mph , 6 km/h
Temperature: 75°F , 24°C
Dew Point: 73°F , 23°C
Humidity: 94%
Barometer: 29.91 inHg , 1012.9 hPa
Clouds: Partly cloudy
Visibility: 10 miles , 16 km
Cloud details: Partly cloudy 900 ft
2021/10/26 11:53 KLEE 261153Z 28003KT 10SM SCT009 24/23 A2991 RMK AO2 SLP126 70005 T02390228 10244 20239 51010
 
KSFB - Sanford/Orlando, Florida, USA
Distance from station: NNE 47mi, 76km
Updated: Tue, 26-Oct-2021 7:53am EDT
Few Clouds
Few Clouds
 Wind from WSW
Wind: WSW 6 mph , 9 km/h
Temperature: 73°F , 23°C
Dew Point: 72°F , 22°C
Humidity: 94%
Barometer: 29.89 inHg , 1012.2 hPa
Clouds: Few Clouds
Visibility: 10 miles , 16 km
Cloud details: Few Clouds 1400 ft
Few Clouds 5000 ft
2021/10/26 11:53 KSFB 261153Z 25005KT 10SM FEW014 FEW050 23/22 A2989 RMK AO2 SLP121 70125 T02330222 10244 20233 51010